sensor_id;sensor_type;location;lat;lon;timestamp;P1;durP1;ratioP1;P2;durP2;ratioP2
70169;SDS011;57543;45.442;9.212;2024-01-30T00:00:12;61.67;;;22.23;;
70169;SDS011;57543;45.442;9.212;2024-01-30T00:03:15;45.47;;;19.83;;
70169;SDS011;57543;45.442;9.212;2024-01-30T00:06:19;46.72;;;19.95;;
70169;SDS011;57543;45.442;9.212;2024-01-30T00:09:24;42.85;;;19.17;;
70169;SDS011;57543;45.442;9.212;2024-01-30T00:12:30;47.05;;;19.42;;
70169;SDS011;57543;45.442;9.212;2024-01-30T00:15:35;39.40;;;18.13;;
70169;SDS011;57543;45.442;9.212;2024-01-30T00:18:42;43.00;;;19.80;;
70169;SDS011;57543;45.442;9.212;2024-01-30T00:21:46;40.40;;;18.13;;
70169;SDS011;57543;45.442;9.212;2024-01-30T00:24:49;43.42;;;19.08;;
70169;SDS011;57543;45.442;9.212;2024-01-30T00:27:52;44.55;;;19.52;;
70169;SDS011;57543;45.442;9.212;2024-01-30T00:30:56;45.23;;;20.33;;
70169;SDS011;57543;45.442;9.212;2024-01-30T00:34:00;41.55;;;19.30;;
70169;SDS011;57543;45.442;9.212;2024-01-30T00:37:03;43.70;;;20.15;;
70169;SDS011;57543;45.442;9.212;2024-01-30T00:40:07;45.42;;;20.15;;
70169;SDS011;57543;45.442;9.212;2024-01-30T00:43:13;48.72;;;20.90;;
70169;SDS011;57543;45.442;9.212;2024-01-30T00:46:17;40.47;;;19.20;;
70169;SDS011;57543;45.442;9.212;2024-01-30T00:49:20;46.33;;;19.58;;
70169;SDS011;57543;45.442;9.212;2024-01-30T00:52:24;46.80;;;20.15;;
70169;SDS011;57543;45.442;9.212;2024-01-30T00:55:27;48.05;;;20.15;;
70169;SDS011;57543;45.442;9.212;2024-01-30T00:58:31;57.00;;;20.33;;
70169;SDS011;57543;45.442;9.212;2024-01-30T01:01:35;45.40;;;20.07;;
70169;SDS011;57543;45.442;9.212;2024-01-30T01:04:39;38.88;;;18.65;;
70169;SDS011;57543;45.442;9.212;2024-01-30T01:07:43;45.03;;;19.80;;
70169;SDS011;57543;45.442;9.212;2024-01-30T01:10:49;44.25;;;19.02;;
70169;SDS011;57543;45.442;9.212;2024-01-30T01:13:52;42.92;;;19.50;;
70169;SDS011;57543;45.442;9.212;2024-01-30T01:16:59;43.77;;;19.37;;
70169;SDS011;57543;45.442;9.212;2024-01-30T01:20:06;46.33;;;19.20;;
70169;SDS011;57543;45.442;9.212;2024-01-30T01:23:10;46.08;;;19.50;;
70169;SDS011;57543;45.442;9.212;2024-01-30T01:26:13;44.38;;;19.80;;
70169;SDS011;57543;45.442;9.212;2024-01-30T01:29:17;50.05;;;19.73;;
70169;SDS011;57543;45.442;9.212;2024-01-30T01:32:22;47.93;;;21.20;;
70169;SDS011;57543;45.442;9.212;2024-01-30T01:35:25;44.58;;;20.30;;
70169;SDS011;57543;45.442;9.212;2024-01-30T01:38:29;43.00;;;19.83;;
70169;SDS011;57543;45.442;9.212;2024-01-30T01:41:36;48.17;;;20.65;;
70169;SDS011;57543;45.442;9.212;2024-01-30T01:44:40;51.60;;;21.08;;
70169;SDS011;57543;45.442;9.212;2024-01-30T01:47:43;46.10;;;20.07;;
70169;SDS011;57543;45.442;9.212;2024-01-30T01:50:49;45.47;;;21.00;;
70169;SDS011;57543;45.442;9.212;2024-01-30T01:53:53;44.50;;;19.55;;
70169;SDS011;57543;45.442;9.212;2024-01-30T01:56:58;49.88;;;21.98;;
70169;SDS011;57543;45.442;9.212;2024-01-30T02:00:03;50.85;;;21.58;;
70169;SDS011;57543;45.442;9.212;2024-01-30T02:03:12;46.47;;;20.03;;
70169;SDS011;57543;45.442;9.212;2024-01-30T02:06:17;47.65;;;20.85;;
70169;SDS011;57543;45.442;9.212;2024-01-30T02:09:20;47.58;;;21.08;;
70169;SDS011;57543;45.442;9.212;2024-01-30T02:12:23;50.58;;;21.33;;
70169;SDS011;57543;45.442;9.212;2024-01-30T02:15:28;42.95;;;19.80;;
70169;SDS011;57543;45.442;9.212;2024-01-30T02:18:32;46.23;;;20.07;;
70169;SDS011;57543;45.442;9.212;2024-01-30T02:21:54;48.33;;;20.98;;
70169;SDS011;57543;45.442;9.212;2024-01-30T02:24:58;48.63;;;21.00;;
70169;SDS011;57543;45.442;9.212;2024-01-30T02:28:01;49.58;;;20.98;;
70169;SDS011;57543;45.442;9.212;2024-01-30T02:31:05;49.58;;;21.90;;
70169;SDS011;57543;45.442;9.212;2024-01-30T02:34:09;48.37;;;21.13;;
70169;SDS011;57543;45.442;9.212;2024-01-30T02:37:12;50.20;;;21.85;;
70169;SDS011;57543;45.442;9.212;2024-01-30T02:40:15;51.58;;;21.55;;
70169;SDS011;57543;45.442;9.212;2024-01-30T02:43:19;52.22;;;22.40;;
70169;SDS011;57543;45.442;9.212;2024-01-30T02:46:23;50.78;;;21.75;;
70169;SDS011;57543;45.442;9.212;2024-01-30T02:49:27;49.10;;;21.90;;
70169;SDS011;57543;45.442;9.212;2024-01-30T02:52:31;50.20;;;22.20;;
70169;SDS011;57543;45.442;9.212;2024-01-30T02:55:34;49.78;;;23.17;;
70169;SDS011;57543;45.442;9.212;2024-01-30T02:58:38;51.53;;;22.60;;
70169;SDS011;57543;45.442;9.212;2024-01-30T03:01:43;50.33;;;22.33;;
70169;SDS011;57543;45.442;9.212;2024-01-30T03:04:47;54.87;;;23.50;;
70169;SDS011;57543;45.442;9.212;2024-01-30T03:07:51;50.85;;;22.05;;
70169;SDS011;57543;45.442;9.212;2024-01-30T03:10:54;50.50;;;22.23;;
70169;SDS011;57543;45.442;9.212;2024-01-30T03:14:00;56.22;;;22.27;;
70169;SDS011;57543;45.442;9.212;2024-01-30T03:17:04;51.35;;;21.90;;
70169;SDS011;57543;45.442;9.212;2024-01-30T03:20:08;46.20;;;21.23;;
70169;SDS011;57543;45.442;9.212;2024-01-30T03:23:12;45.83;;;20.90;;
70169;SDS011;57543;45.442;9.212;2024-01-30T03:26:15;48.05;;;21.38;;
70169;SDS011;57543;45.442;9.212;2024-01-30T03:29:19;48.85;;;20.23;;
70169;SDS011;57543;45.442;9.212;2024-01-30T03:32:22;47.58;;;20.38;;
70169;SDS011;57543;45.442;9.212;2024-01-30T03:35:25;44.83;;;20.07;;
70169;SDS011;57543;45.442;9.212;2024-01-30T03:38:29;47.45;;;21.60;;
70169;SDS011;57543;45.442;9.212;2024-01-30T03:41:32;47.50;;;20.70;;
70169;SDS011;57543;45.442;9.212;2024-01-30T03:44:36;50.72;;;21.15;;
70169;SDS011;57543;45.442;9.212;2024-01-30T03:47:43;50.67;;;22.10;;
70169;SDS011;57543;45.442;9.212;2024-01-30T03:50:47;46.63;;;21.70;;
70169;SDS011;57543;45.442;9.212;2024-01-30T03:53:50;49.42;;;21.35;;
70169;SDS011;57543;45.442;9.212;2024-01-30T03:56:54;48.03;;;21.70;;
70169;SDS011;57543;45.442;9.212;2024-01-30T04:00:00;43.58;;;19.75;;
70169;SDS011;57543;45.442;9.212;2024-01-30T04:03:05;44.50;;;19.90;;
70169;SDS011;57543;45.442;9.212;2024-01-30T04:06:11;41.63;;;19.80;;
70169;SDS011;57543;45.442;9.212;2024-01-30T04:09:15;50.58;;;21.33;;
70169;SDS011;57543;45.442;9.212;2024-01-30T04:12:19;43.45;;;21.27;;
70169;SDS011;57543;45.442;9.212;2024-01-30T04:15:25;43.47;;;19.75;;
70169;SDS011;57543;45.442;9.212;2024-01-30T04:18:29;47.92;;;20.23;;
70169;SDS011;57543;45.442;9.212;2024-01-30T04:21:33;39.40;;;18.83;;
70169;SDS011;57543;45.442;9.212;2024-01-30T04:24:37;41.95;;;19.42;;
70169;SDS011;57543;45.442;9.212;2024-01-30T04:27:40;39.95;;;19.05;;
70169;SDS011;57543;45.442;9.212;2024-01-30T04:30:44;42.03;;;19.00;;
70169;SDS011;57543;45.442;9.212;2024-01-30T04:33:48;42.47;;;19.50;;
70169;SDS011;57543;45.442;9.212;2024-01-30T04:36:51;44.30;;;18.90;;
70169;SDS011;57543;45.442;9.212;2024-01-30T04:39:54;41.03;;;19.05;;
70169;SDS011;57543;45.442;9.212;2024-01-30T04:42:58;39.88;;;19.48;;
70169;SDS011;57543;45.442;9.212;2024-01-30T04:46:02;38.90;;;18.17;;
70169;SDS011;57543;45.442;9.212;2024-01-30T04:49:06;42.15;;;18.73;;
70169;SDS011;57543;45.442;9.212;2024-01-30T04:52:12;38.40;;;18.47;;
70169;SDS011;57543;45.442;9.212;2024-01-30T04:55:15;42.97;;;19.27;;
70169;SDS011;57543;45.442;9.212;2024-01-30T04:58:19;44.90;;;19.33;;
70169;SDS011;57543;45.442;9.212;2024-01-30T05:01:22;40.85;;;18.83;;
70169;SDS011;57543;45.442;9.212;2024-01-30T05:04:25;43.83;;;19.88;;
70169;SDS011;57543;45.442;9.212;2024-01-30T05:07:29;40.97;;;18.97;;
70169;SDS011;57543;45.442;9.212;2024-01-30T05:10:33;40.35;;;17.95;;
70169;SDS011;57543;45.442;9.212;2024-01-30T05:13:37;38.75;;;18.48;;
70169;SDS011;57543;45.442;9.212;2024-01-30T05:16:40;38.35;;;17.73;;
70169;SDS011;57543;45.442;9.212;2024-01-30T05:19:44;38.83;;;17.58;;
70169;SDS011;57543;45.442;9.212;2024-01-30T05:22:48;38.57;;;17.77;;
70169;SDS011;57543;45.442;9.212;2024-01-30T05:25:51;35.60;;;17.88;;
70169;SDS011;57543;45.442;9.212;2024-01-30T05:28:55;40.30;;;18.25;;
70169;SDS011;57543;45.442;9.212;2024-01-30T05:31:58;36.25;;;17.10;;
70169;SDS011;57543;45.442;9.212;2024-01-30T05:35:02;36.35;;;17.10;;
70169;SDS011;57543;45.442;9.212;2024-01-30T05:38:06;38.40;;;16.70;;
70169;SDS011;57543;45.442;9.212;2024-01-30T05:41:10;39.15;;;18.00;;
70169;SDS011;57543;45.442;9.212;2024-01-30T05:44:14;36.97;;;17.33;;
70169;SDS011;57543;45.442;9.212;2024-01-30T05:47:18;36.78;;;17.30;;
70169;SDS011;57543;45.442;9.212;2024-01-30T05:50:23;35.35;;;16.52;;
70169;SDS011;57543;45.442;9.212;2024-01-30T05:53:28;39.00;;;17.87;;
70169;SDS011;57543;45.442;9.212;2024-01-30T05:56:32;36.78;;;17.35;;
70169;SDS011;57543;45.442;9.212;2024-01-30T05:59:35;37.75;;;17.20;;
70169;SDS011;57543;45.442;9.212;2024-01-30T06:02:39;38.42;;;16.90;;
70169;SDS011;57543;45.442;9.212;2024-01-30T06:05:43;45.25;;;20.02;;
70169;SDS011;57543;45.442;9.212;2024-01-30T06:08:47;37.17;;;17.13;;
70169;SDS011;57543;45.442;9.212;2024-01-30T06:11:50;42.70;;;18.83;;
70169;SDS011;57543;45.442;9.212;2024-01-30T06:14:54;37.90;;;18.73;;
70169;SDS011;57543;45.442;9.212;2024-01-30T06:18:02;40.47;;;19.15;;
70169;SDS011;57543;45.442;9.212;2024-01-30T06:21:06;37.78;;;17.85;;
70169;SDS011;57543;45.442;9.212;2024-01-30T06:24:10;38.27;;;18.63;;
70169;SDS011;57543;45.442;9.212;2024-01-30T06:27:14;42.45;;;18.30;;
70169;SDS011;57543;45.442;9.212;2024-01-30T06:30:18;42.63;;;20.17;;
70169;SDS011;57543;45.442;9.212;2024-01-30T06:33:21;40.95;;;19.90;;
70169;SDS011;57543;45.442;9.212;2024-01-30T06:36:26;44.63;;;20.88;;
70169;SDS011;57543;45.442;9.212;2024-01-30T06:39:29;44.97;;;20.83;;
70169;SDS011;57543;45.442;9.212;2024-01-30T06:42:33;46.17;;;20.60;;
70169;SDS011;57543;45.442;9.212;2024-01-30T06:45:36;45.22;;;22.50;;
70169;SDS011;57543;45.442;9.212;2024-01-30T06:48:41;49.47;;;21.13;;
70169;SDS011;57543;45.442;9.212;2024-01-30T06:51:47;48.10;;;20.30;;
70169;SDS011;57543;45.442;9.212;2024-01-30T06:54:53;48.77;;;20.70;;
70169;SDS011;57543;45.442;9.212;2024-01-30T06:57:57;42.13;;;21.33;;
70169;SDS011;57543;45.442;9.212;2024-01-30T07:01:00;47.72;;;21.63;;
70169;SDS011;57543;45.442;9.212;2024-01-30T07:04:05;53.65;;;22.48;;
70169;SDS011;57543;45.442;9.212;2024-01-30T07:07:09;51.20;;;23.27;;
70169;SDS011;57543;45.442;9.212;2024-01-30T07:10:15;48.80;;;21.90;;
70169;SDS011;57543;45.442;9.212;2024-01-30T07:13:19;55.53;;;24.13;;
70169;SDS011;57543;45.442;9.212;2024-01-30T07:16:22;56.40;;;22.95;;
70169;SDS011;57543;45.442;9.212;2024-01-30T07:19:26;53.40;;;23.23;;
70169;SDS011;57543;45.442;9.212;2024-01-30T07:22:29;56.03;;;22.92;;
70169;SDS011;57543;45.442;9.212;2024-01-30T07:25:34;54.30;;;23.53;;
70169;SDS011;57543;45.442;9.212;2024-01-30T07:28:39;53.10;;;22.35;;
70169;SDS011;57543;45.442;9.212;2024-01-30T07:31:42;51.40;;;23.42;;
70169;SDS011;57543;45.442;9.212;2024-01-30T07:34:46;54.08;;;23.27;;
70169;SDS011;57543;45.442;9.212;2024-01-30T07:37:50;55.75;;;24.23;;
70169;SDS011;57543;45.442;9.212;2024-01-30T07:40:54;56.23;;;24.27;;
70169;SDS011;57543;45.442;9.212;2024-01-30T07:43:57;57.70;;;24.92;;
70169;SDS011;57543;45.442;9.212;2024-01-30T07:47:02;59.28;;;24.73;;
70169;SDS011;57543;45.442;9.212;2024-01-30T07:50:07;66.72;;;25.20;;
70169;SDS011;57543;45.442;9.212;2024-01-30T07:53:12;64.40;;;25.13;;
70169;SDS011;57543;45.442;9.212;2024-01-30T07:56:17;71.33;;;26.40;;
70169;SDS011;57543;45.442;9.212;2024-01-30T07:59:20;59.85;;;23.95;;
70169;SDS011;57543;45.442;9.212;2024-01-30T08:02:28;58.53;;;24.63;;
70169;SDS011;57543;45.442;9.212;2024-01-30T08:05:31;61.22;;;24.25;;
70169;SDS011;57543;45.442;9.212;2024-01-30T08:08:35;61.97;;;26.05;;
70169;SDS011;57543;45.442;9.212;2024-01-30T08:11:39;63.83;;;25.07;;
70169;SDS011;57543;45.442;9.212;2024-01-30T08:14:43;65.00;;;25.58;;
70169;SDS011;57543;45.442;9.212;2024-01-30T08:17:46;66.05;;;25.10;;
70169;SDS011;57543;45.442;9.212;2024-01-30T08:20:50;65.97;;;25.30;;
70169;SDS011;57543;45.442;9.212;2024-01-30T08:23:53;65.82;;;25.05;;
70169;SDS011;57543;45.442;9.212;2024-01-30T08:26:57;67.43;;;25.93;;
70169;SDS011;57543;45.442;9.212;2024-01-30T08:30:02;61.15;;;23.77;;
70169;SDS011;57543;45.442;9.212;2024-01-30T08:33:09;56.25;;;23.35;;
70169;SDS011;57543;45.442;9.212;2024-01-30T08:36:12;56.95;;;23.30;;
70169;SDS011;57543;45.442;9.212;2024-01-30T08:39:16;57.45;;;23.75;;
70169;SDS011;57543;45.442;9.212;2024-01-30T08:42:19;54.90;;;24.17;;
70169;SDS011;57543;45.442;9.212;2024-01-30T08:45:25;52.85;;;23.25;;
70169;SDS011;57543;45.442;9.212;2024-01-30T08:48:28;58.03;;;22.85;;
70169;SDS011;57543;45.442;9.212;2024-01-30T08:51:32;56.50;;;24.33;;
70169;SDS011;57543;45.442;9.212;2024-01-30T08:54:37;54.22;;;23.90;;
70169;SDS011;57543;45.442;9.212;2024-01-30T08:57:40;56.70;;;24.50;;
70169;SDS011;57543;45.442;9.212;2024-01-30T09:00:44;56.50;;;23.20;;
70169;SDS011;57543;45.442;9.212;2024-01-30T09:03:48;51.55;;;24.15;;
70169;SDS011;57543;45.442;9.212;2024-01-30T09:06:51;50.58;;;23.83;;
70169;SDS011;57543;45.442;9.212;2024-01-30T09:09:55;55.13;;;24.25;;
70169;SDS011;57543;45.442;9.212;2024-01-30T09:12:58;49.90;;;23.03;;
70169;SDS011;57543;45.442;9.212;2024-01-30T09:16:02;51.78;;;24.63;;
70169;SDS011;57543;45.442;9.212;2024-01-30T09:19:06;51.90;;;23.90;;
70169;SDS011;57543;45.442;9.212;2024-01-30T09:22:09;48.83;;;24.73;;
70169;SDS011;57543;45.442;9.212;2024-01-30T09:25:13;53.65;;;25.30;;
70169;SDS011;57543;45.442;9.212;2024-01-30T09:28:17;51.50;;;23.90;;
70169;SDS011;57543;45.442;9.212;2024-01-30T09:31:21;56.33;;;24.83;;
70169;SDS011;57543;45.442;9.212;2024-01-30T09:34:24;57.67;;;25.83;;
70169;SDS011;57543;45.442;9.212;2024-01-30T09:37:28;55.70;;;24.65;;
70169;SDS011;57543;45.442;9.212;2024-01-30T09:40:31;56.75;;;25.67;;
70169;SDS011;57543;45.442;9.212;2024-01-30T09:43:35;59.63;;;28.30;;
70169;SDS011;57543;45.442;9.212;2024-01-30T09:46:42;55.53;;;27.45;;
70169;SDS011;57543;45.442;9.212;2024-01-30T09:49:49;59.70;;;27.10;;
70169;SDS011;57543;45.442;9.212;2024-01-30T09:52:53;57.97;;;27.58;;
70169;SDS011;57543;45.442;9.212;2024-01-30T09:56:02;63.20;;;28.27;;
70169;SDS011;57543;45.442;9.212;2024-01-30T09:59:06;73.27;;;30.47;;
70169;SDS011;57543;45.442;9.212;2024-01-30T10:02:10;75.80;;;30.75;;
70169;SDS011;57543;45.442;9.212;2024-01-30T10:05:15;69.28;;;29.02;;
70169;SDS011;57543;45.442;9.212;2024-01-30T10:08:22;72.60;;;29.55;;
70169;SDS011;57543;45.442;9.212;2024-01-30T10:11:26;74.68;;;32.08;;
70169;SDS011;57543;45.442;9.212;2024-01-30T10:14:33;75.03;;;31.57;;
70169;SDS011;57543;45.442;9.212;2024-01-30T10:17:37;72.63;;;30.45;;
70169;SDS011;57543;45.442;9.212;2024-01-30T10:20:43;69.40;;;30.05;;
70169;SDS011;57543;45.442;9.212;2024-01-30T10:23:47;67.82;;;29.13;;
70169;SDS011;57543;45.442;9.212;2024-01-30T10:26:53;72.72;;;30.13;;
70169;SDS011;57543;45.442;9.212;2024-01-30T10:29:59;69.37;;;29.30;;
70169;SDS011;57543;45.442;9.212;2024-01-30T10:33:07;70.45;;;29.13;;
70169;SDS011;57543;45.442;9.212;2024-01-30T10:36:12;87.13;;;34.70;;
70169;SDS011;57543;45.442;9.212;2024-01-30T10:39:17;92.32;;;37.10;;
70169;SDS011;57543;45.442;9.212;2024-01-30T10:42:25;90.30;;;36.97;;
70169;SDS011;57543;45.442;9.212;2024-01-30T10:45:30;88.53;;;37.97;;
70169;SDS011;57543;45.442;9.212;2024-01-30T10:48:35;84.07;;;36.10;;
70169;SDS011;57543;45.442;9.212;2024-01-30T10:51:45;75.95;;;32.70;;
70169;SDS011;57543;45.442;9.212;2024-01-30T10:54:51;72.72;;;32.05;;
70169;SDS011;57543;45.442;9.212;2024-01-30T10:57:55;72.30;;;30.48;;
70169;SDS011;57543;45.442;9.212;2024-01-30T11:00:59;66.83;;;30.43;;
70169;SDS011;57543;45.442;9.212;2024-01-30T11:04:03;63.85;;;27.88;;
70169;SDS011;57543;45.442;9.212;2024-01-30T11:07:18;67.85;;;29.73;;
70169;SDS011;57543;45.442;9.212;2024-01-30T11:10:28;64.82;;;29.17;;
70169;SDS011;57543;45.442;9.212;2024-01-30T11:13:32;63.90;;;30.20;;
70169;SDS011;57543;45.442;9.212;2024-01-30T11:16:36;61.07;;;29.63;;
70169;SDS011;57543;45.442;9.212;2024-01-30T11:19:43;62.13;;;30.92;;
70169;SDS011;57543;45.442;9.212;2024-01-30T11:22:47;76.25;;;33.83;;
70169;SDS011;57543;45.442;9.212;2024-01-30T11:25:51;72.30;;;33.55;;
70169;SDS011;57543;45.442;9.212;2024-01-30T11:28:56;71.82;;;34.78;;
70169;SDS011;57543;45.442;9.212;2024-01-30T11:31:59;83.83;;;36.97;;
70169;SDS011;57543;45.442;9.212;2024-01-30T11:35:06;83.18;;;37.20;;
70169;SDS011;57543;45.442;9.212;2024-01-30T11:38:10;72.65;;;36.13;;
70169;SDS011;57543;45.442;9.212;2024-01-30T11:41:17;79.38;;;36.67;;
70169;SDS011;57543;45.442;9.212;2024-01-30T11:44:21;75.60;;;36.00;;
70169;SDS011;57543;45.442;9.212;2024-01-30T11:47:27;83.03;;;38.47;;
70169;SDS011;57543;45.442;9.212;2024-01-30T11:50:34;76.55;;;35.35;;
70169;SDS011;57543;45.442;9.212;2024-01-30T11:53:37;75.18;;;36.60;;
70169;SDS011;57543;45.442;9.212;2024-01-30T11:56:41;79.20;;;36.08;;
70169;SDS011;57543;45.442;9.212;2024-01-30T11:59:45;76.80;;;34.95;;
70169;SDS011;57543;45.442;9.212;2024-01-30T12:02:52;69.10;;;34.37;;
70169;SDS011;57543;45.442;9.212;2024-01-30T12:06:02;63.40;;;31.83;;
70169;SDS011;57543;45.442;9.212;2024-01-30T12:09:06;64.20;;;33.90;;
70169;SDS011;57543;45.442;9.212;2024-01-30T12:12:11;66.70;;;33.97;;
70169;SDS011;57543;45.442;9.212;2024-01-30T12:15:16;62.35;;;33.05;;
70169;SDS011;57543;45.442;9.212;2024-01-30T12:18:20;69.33;;;32.60;;
70169;SDS011;57543;45.442;9.212;2024-01-30T12:21:24;69.00;;;34.85;;
70169;SDS011;57543;45.442;9.212;2024-01-30T12:24:28;63.55;;;32.30;;
70169;SDS011;57543;45.442;9.212;2024-01-30T12:27:35;64.60;;;33.50;;
70169;SDS011;57543;45.442;9.212;2024-01-30T12:30:42;69.32;;;33.70;;
70169;SDS011;57543;45.442;9.212;2024-01-30T12:33:48;69.87;;;33.70;;
70169;SDS011;57543;45.442;9.212;2024-01-30T12:36:52;65.03;;;33.42;;
70169;SDS011;57543;45.442;9.212;2024-01-30T12:39:56;70.90;;;33.88;;
70169;SDS011;57543;45.442;9.212;2024-01-30T12:42:59;68.05;;;34.50;;
70169;SDS011;57543;45.442;9.212;2024-01-30T12:46:04;63.67;;;32.92;;
70169;SDS011;57543;45.442;9.212;2024-01-30T12:49:07;66.80;;;33.00;;
70169;SDS011;57543;45.442;9.212;2024-01-30T12:52:11;69.50;;;33.72;;
70169;SDS011;57543;45.442;9.212;2024-01-30T12:55:15;66.95;;;34.03;;
70169;SDS011;57543;45.442;9.212;2024-01-30T12:58:18;69.38;;;32.63;;
70169;SDS011;57543;45.442;9.212;2024-01-30T13:01:22;71.97;;;35.72;;
70169;SDS011;57543;45.442;9.212;2024-01-30T13:04:26;62.40;;;33.13;;
70169;SDS011;57543;45.442;9.212;2024-01-30T13:07:30;66.53;;;33.90;;
70169;SDS011;57543;45.442;9.212;2024-01-30T13:10:34;63.50;;;33.22;;
70169;SDS011;57543;45.442;9.212;2024-01-30T13:13:37;64.00;;;31.77;;
70169;SDS011;57543;45.442;9.212;2024-01-30T13:16:41;71.47;;;35.15;;
70169;SDS011;57543;45.442;9.212;2024-01-30T13:19:44;64.00;;;33.03;;
70169;SDS011;57543;45.442;9.212;2024-01-30T13:22:48;63.42;;;32.17;;
70169;SDS011;57543;45.442;9.212;2024-01-30T13:25:53;69.00;;;34.15;;
70169;SDS011;57543;45.442;9.212;2024-01-30T13:28:59;67.32;;;33.92;;
70169;SDS011;57543;45.442;9.212;2024-01-30T13:32:02;66.05;;;34.65;;
70169;SDS011;57543;45.442;9.212;2024-01-30T13:35:06;73.83;;;34.60;;
70169;SDS011;57543;45.442;9.212;2024-01-30T13:38:10;62.95;;;33.70;;
70169;SDS011;57543;45.442;9.212;2024-01-30T13:41:13;68.43;;;35.20;;
70169;SDS011;57543;45.442;9.212;2024-01-30T13:44:17;71.28;;;35.28;;
70169;SDS011;57543;45.442;9.212;2024-01-30T13:47:21;66.65;;;33.65;;
70169;SDS011;57543;45.442;9.212;2024-01-30T13:50:24;73.10;;;35.83;;
70169;SDS011;57543;45.442;9.212;2024-01-30T13:53:29;68.13;;;33.25;;
70169;SDS011;57543;45.442;9.212;2024-01-30T13:56:32;68.72;;;35.25;;
70169;SDS011;57543;45.442;9.212;2024-01-30T13:59:37;66.20;;;34.38;;
70169;SDS011;57543;45.442;9.212;2024-01-30T14:02:42;67.93;;;34.55;;
70169;SDS011;57543;45.442;9.212;2024-01-30T14:05:46;67.40;;;34.13;;
70169;SDS011;57543;45.442;9.212;2024-01-30T14:08:50;65.70;;;32.50;;
70169;SDS011;57543;45.442;9.212;2024-01-30T14:11:54;65.93;;;33.00;;
70169;SDS011;57543;45.442;9.212;2024-01-30T14:14:57;64.60;;;32.17;;
70169;SDS011;57543;45.442;9.212;2024-01-30T14:18:03;63.17;;;31.60;;
70169;SDS011;57543;45.442;9.212;2024-01-30T14:21:08;65.37;;;32.73;;
70169;SDS011;57543;45.442;9.212;2024-01-30T14:24:11;68.57;;;33.00;;
70169;SDS011;57543;45.442;9.212;2024-01-30T14:27:15;69.63;;;34.38;;
70169;SDS011;57543;45.442;9.212;2024-01-30T14:30:19;72.75;;;36.63;;
70169;SDS011;57543;45.442;9.212;2024-01-30T14:33:27;75.85;;;36.83;;
70169;SDS011;57543;45.442;9.212;2024-01-30T14:36:30;81.77;;;39.67;;
70169;SDS011;57543;45.442;9.212;2024-01-30T14:39:34;73.38;;;36.25;;
70169;SDS011;57543;45.442;9.212;2024-01-30T14:42:43;71.60;;;35.92;;
70169;SDS011;57543;45.442;9.212;2024-01-30T14:45:47;69.57;;;34.13;;
70169;SDS011;57543;45.442;9.212;2024-01-30T14:48:55;70.53;;;32.35;;
70169;SDS011;57543;45.442;9.212;2024-01-30T14:52:00;70.93;;;32.90;;
70169;SDS011;57543;45.442;9.212;2024-01-30T14:55:07;62.65;;;30.13;;
70169;SDS011;57543;45.442;9.212;2024-01-30T14:58:11;67.45;;;31.25;;
70169;SDS011;57543;45.442;9.212;2024-01-30T15:01:15;70.55;;;31.42;;
70169;SDS011;57543;45.442;9.212;2024-01-30T15:04:19;64.97;;;31.88;;
70169;SDS011;57543;45.442;9.212;2024-01-30T15:07:22;75.17;;;32.67;;
70169;SDS011;57543;45.442;9.212;2024-01-30T15:10:26;71.03;;;33.20;;
70169;SDS011;57543;45.442;9.212;2024-01-30T15:13:29;71.03;;;31.90;;
70169;SDS011;57543;45.442;9.212;2024-01-30T15:16:33;64.18;;;30.30;;
70169;SDS011;57543;45.442;9.212;2024-01-30T15:19:37;64.43;;;30.05;;
70169;SDS011;57543;45.442;9.212;2024-01-30T15:22:41;65.43;;;29.30;;
70169;SDS011;57543;45.442;9.212;2024-01-30T15:25:45;65.78;;;29.50;;
70169;SDS011;57543;45.442;9.212;2024-01-30T15:28:52;64.05;;;29.52;;
70169;SDS011;57543;45.442;9.212;2024-01-30T15:31:58;68.32;;;30.90;;
70169;SDS011;57543;45.442;9.212;2024-01-30T15:35:02;65.45;;;29.45;;
70169;SDS011;57543;45.442;9.212;2024-01-30T15:38:07;68.23;;;30.60;;
70169;SDS011;57543;45.442;9.212;2024-01-30T15:41:31;62.95;;;29.65;;
70169;SDS011;57543;45.442;9.212;2024-01-30T15:44:54;61.78;;;29.02;;
70169;SDS011;57543;45.442;9.212;2024-01-30T15:48:21;65.38;;;29.02;;
70169;SDS011;57543;45.442;9.212;2024-01-30T15:51:52;68.90;;;28.85;;
70169;SDS011;57543;45.442;9.212;2024-01-30T15:55:19;61.33;;;28.37;;
70169;SDS011;57543;45.442;9.212;2024-01-30T15:58:48;63.78;;;28.42;;
70169;SDS011;57543;45.442;9.212;2024-01-30T16:02:19;63.40;;;27.60;;
70169;SDS011;57543;45.442;9.212;2024-01-30T16:05:48;65.35;;;29.17;;
70169;SDS011;57543;45.442;9.212;2024-01-30T16:09:17;69.03;;;29.83;;
70169;SDS011;57543;45.442;9.212;2024-01-30T16:12:46;65.23;;;29.13;;
70169;SDS011;57543;45.442;9.212;2024-01-30T16:16:14;68.10;;;30.25;;
70169;SDS011;57543;45.442;9.212;2024-01-30T16:19:41;71.00;;;29.77;;
70169;SDS011;57543;45.442;9.212;2024-01-30T16:23:11;71.07;;;30.65;;
70169;SDS011;57543;45.442;9.212;2024-01-30T16:26:40;67.35;;;30.55;;
70169;SDS011;57543;45.442;9.212;2024-01-30T16:30:10;76.77;;;32.47;;
70169;SDS011;57543;45.442;9.212;2024-01-30T16:33:39;68.18;;;30.83;;
70169;SDS011;57543;45.442;9.212;2024-01-30T16:37:08;74.30;;;31.67;;
70169;SDS011;57543;45.442;9.212;2024-01-30T16:40:37;75.85;;;32.25;;
70169;SDS011;57543;45.442;9.212;2024-01-30T16:44:07;74.13;;;32.92;;
70169;SDS011;57543;45.442;9.212;2024-01-30T16:47:37;78.80;;;34.60;;
70169;SDS011;57543;45.442;9.212;2024-01-30T16:51:01;77.22;;;33.55;;
70169;SDS011;57543;45.442;9.212;2024-01-30T16:54:29;82.53;;;34.75;;
70169;SDS011;57543;45.442;9.212;2024-01-30T16:58:01;78.38;;;34.65;;
70169;SDS011;57543;45.442;9.212;2024-01-30T17:01:30;80.72;;;33.40;;
70169;SDS011;57543;45.442;9.212;2024-01-30T17:05:00;78.83;;;35.40;;
70169;SDS011;57543;45.442;9.212;2024-01-30T17:08:28;85.43;;;35.30;;
70169;SDS011;57543;45.442;9.212;2024-01-30T17:11:52;84.53;;;35.30;;
70169;SDS011;57543;45.442;9.212;2024-01-30T17:15:20;83.10;;;34.25;;
70169;SDS011;57543;45.442;9.212;2024-01-30T17:18:49;86.32;;;35.90;;
70169;SDS011;57543;45.442;9.212;2024-01-30T17:22:19;88.93;;;35.37;;
70169;SDS011;57543;45.442;9.212;2024-01-30T17:25:49;85.80;;;35.80;;
70169;SDS011;57543;45.442;9.212;2024-01-30T17:29:12;87.85;;;37.53;;
70169;SDS011;57543;45.442;9.212;2024-01-30T17:32:43;93.53;;;37.60;;
70169;SDS011;57543;45.442;9.212;2024-01-30T17:36:13;90.55;;;39.38;;
70169;SDS011;57543;45.442;9.212;2024-01-30T17:39:44;95.93;;;39.23;;
70169;SDS011;57543;45.442;9.212;2024-01-30T17:43:13;96.80;;;41.88;;
70169;SDS011;57543;45.442;9.212;2024-01-30T17:46:42;92.40;;;38.15;;
70169;SDS011;57543;45.442;9.212;2024-01-30T17:50:12;92.47;;;39.42;;
70169;SDS011;57543;45.442;9.212;2024-01-30T17:53:16;95.07;;;38.63;;
70169;SDS011;57543;45.442;9.212;2024-01-30T17:56:23;86.73;;;38.53;;
70169;SDS011;57543;45.442;9.212;2024-01-30T17:59:26;97.72;;;40.58;;
70169;SDS011;57543;45.442;9.212;2024-01-30T18:02:33;92.90;;;37.83;;
70169;SDS011;57543;45.442;9.212;2024-01-30T18:05:36;88.85;;;37.75;;
70169;SDS011;57543;45.442;9.212;2024-01-30T18:08:39;96.93;;;40.17;;
70169;SDS011;57543;45.442;9.212;2024-01-30T18:11:44;98.00;;;39.80;;